createdAt,value
2019-01-12T00:01:06.248Z,-1.70
2019-01-12T00:03:33.774Z,-1.70
2019-01-12T00:06:01.003Z,-1.70
2019-01-12T00:08:28.375Z,-1.70
2019-01-12T00:10:56.826Z,-1.70
2019-01-12T00:13:24.263Z,-1.70
2019-01-12T00:15:51.801Z,-1.70
2019-01-12T00:18:19.352Z,-1.70
2019-01-12T00:20:46.848Z,-1.60
2019-01-12T00:23:14.143Z,-1.60
2019-01-12T00:25:41.571Z,-1.60
2019-01-12T00:28:09.043Z,-1.60
2019-01-12T00:30:36.370Z,-1.60
2019-01-12T00:33:03.746Z,-1.60
2019-01-12T00:35:31.071Z,-1.60
2019-01-12T00:37:58.495Z,-1.60
2019-01-12T00:40:25.918Z,-1.50
2019-01-12T00:42:53.234Z,-1.50
2019-01-12T00:45:20.729Z,-1.50
2019-01-12T00:47:48.187Z,-1.50
2019-01-12T00:50:16.123Z,-1.50
2019-01-12T00:52:43.615Z,-1.50
2019-01-12T00:55:10.838Z,-1.50
2019-01-12T00:57:38.318Z,-1.50
2019-01-12T01:00:07.629Z,-1.50
2019-01-12T01:02:35.083Z,-1.40
2019-01-12T01:05:02.645Z,-1.40
2019-01-12T01:07:30.047Z,-1.40
2019-01-12T01:09:57.458Z,-1.40
2019-01-12T01:12:24.772Z,-1.40
2019-01-12T01:14:52.272Z,-1.40
2019-01-12T01:17:19.531Z,-1.40
2019-01-12T01:19:46.978Z,-1.40
2019-01-12T01:22:14.284Z,-1.40
2019-01-12T01:24:45.868Z,-1.40
2019-01-12T01:27:10.875Z,-1.40
2019-01-12T01:29:38.139Z,-1.40
2019-01-12T01:32:05.607Z,-1.40
2019-01-12T01:34:32.898Z,-1.30
2019-01-12T01:37:00.341Z,-1.30
2019-01-12T01:39:27.801Z,-1.30
2019-01-12T01:41:55.099Z,-1.30
2019-01-12T01:44:22.308Z,-1.30
2019-01-12T01:46:49.816Z,-1.20
2019-01-12T01:49:17.169Z,-1.20
2019-01-12T01:51:44.364Z,-1.20
2019-01-12T01:54:11.969Z,-1.20
2019-01-12T01:56:40.631Z,-1.20
2019-01-12T01:59:07.915Z,-1.10
2019-01-12T02:01:35.538Z,-1.10
2019-01-12T02:04:03.059Z,-1.10
2019-01-12T02:06:30.580Z,-1.10
2019-01-12T02:08:57.934Z,-1.10
2019-01-12T02:11:25.394Z,-1.10
2019-01-12T02:13:52.832Z,-1.10
2019-01-12T02:16:21.952Z,-1.10
2019-01-12T02:18:50.385Z,-1.10
2019-01-12T02:21:17.671Z,-1.00
2019-01-12T02:23:45.010Z,-1.00
2019-01-12T02:26:12.606Z,-1.00
2019-01-12T02:28:41.607Z,-1.00
2019-01-12T02:31:08.924Z,-0.90
2019-01-12T02:33:36.208Z,-0.90
2019-01-12T02:36:03.855Z,-0.90
2019-01-12T02:38:31.262Z,-0.90
2019-01-12T02:40:58.760Z,-0.90
2019-01-12T02:43:26.205Z,-0.90
2019-01-12T02:45:53.575Z,-0.80
2019-01-12T02:48:20.683Z,-0.80
2019-01-12T02:50:48.085Z,-0.80
2019-01-12T02:53:15.525Z,-0.80
2019-01-12T02:55:43.869Z,-0.80
2019-01-12T02:58:11.088Z,-0.80
2019-01-12T03:00:38.503Z,-0.70
2019-01-12T03:03:05.981Z,-0.80
2019-01-12T03:05:35.340Z,-0.70
2019-01-12T03:08:17.995Z,-0.70
2019-01-12T03:10:59.184Z,-0.70
2019-01-12T03:13:43.678Z,-0.70
2019-01-12T03:16:27.277Z,-0.60
2019-01-12T03:19:17.563Z,-0.60
2019-01-12T03:21:45.748Z,-0.60
2019-01-12T03:24:13.179Z,-0.60
2019-01-12T03:26:40.401Z,-0.60
2019-01-12T03:29:07.608Z,-0.60
2019-01-12T03:31:34.957Z,-0.60
2019-01-12T03:34:02.511Z,-0.50
2019-01-12T03:36:29.961Z,-0.50
2019-01-12T03:38:57.300Z,-0.60
2019-01-12T03:41:24.767Z,-0.60
2019-01-12T03:43:52.020Z,-0.60
2019-01-12T03:46:19.468Z,-0.60
2019-01-12T03:48:46.724Z,-0.60
2019-01-12T03:51:16.032Z,-0.60
2019-01-12T03:53:43.279Z,-0.50
2019-01-12T03:56:10.515Z,-0.50
2019-01-12T03:58:38.013Z,-0.40
2019-01-12T04:01:07.146Z,-0.40
2019-01-12T04:03:34.549Z,-0.40
2019-01-12T04:06:01.949Z,-0.30
2019-01-12T04:08:29.161Z,-0.30
2019-01-12T04:10:56.659Z,-0.30
2019-01-12T04:13:24.132Z,-0.30
2019-01-12T04:15:51.532Z,-0.30
2019-01-12T04:18:18.723Z,-0.30
2019-01-12T04:20:46.022Z,-0.30
2019-01-12T04:23:13.551Z,-0.40
2019-01-12T04:25:40.988Z,-0.30
2019-01-12T04:28:08.490Z,-0.30
2019-01-12T04:30:35.835Z,-0.30
2019-01-12T04:33:03.289Z,-0.30
2019-01-12T04:35:30.754Z,-0.30
2019-01-12T04:37:57.990Z,-0.20
2019-01-12T04:40:25.467Z,-0.20
2019-01-12T04:42:52.705Z,-0.30
2019-01-12T04:45:20.071Z,-0.30
2019-01-12T04:47:47.413Z,-0.30
2019-01-12T04:50:15.699Z,-0.30
2019-01-12T04:52:43.290Z,-0.30
2019-01-12T04:55:11.553Z,-0.30
2019-01-12T04:57:39.999Z,-0.30
2019-01-12T05:00:08.980Z,-0.30
2019-01-12T05:02:36.559Z,-0.20
2019-01-12T05:05:04.280Z,-0.20
2019-01-12T05:07:31.778Z,-0.20
2019-01-12T05:09:59.044Z,-0.20
2019-01-12T05:12:26.497Z,-0.10
2019-01-12T05:14:53.908Z,-0.10
2019-01-12T05:17:22.216Z,-0.10
2019-01-12T05:19:49.690Z,-0.10
2019-01-12T05:22:17.126Z,-0.10
2019-01-12T05:24:44.557Z,-0.10
2019-01-12T05:27:11.883Z,-0.10
2019-01-12T05:29:39.159Z,-0.20
2019-01-12T05:32:06.640Z,-0.20
2019-01-12T05:34:34.004Z,-0.20
2019-01-12T05:37:01.415Z,-0.20
2019-01-12T05:39:28.822Z,-0.20
2019-01-12T05:41:58.109Z,-0.20
2019-01-12T05:44:25.505Z,-0.20
2019-01-12T05:46:52.763Z,-0.20
2019-01-12T05:49:20.088Z,-0.20
2019-01-12T05:51:47.495Z,-0.20
2019-01-12T05:54:15.017Z,-0.20
2019-01-12T05:56:42.451Z,-0.20
2019-01-12T05:59:09.754Z,-0.20
2019-01-12T06:01:37.164Z,-0.20
2019-01-12T06:04:04.467Z,-0.20
2019-01-12T06:06:31.971Z,-0.10
2019-01-12T06:08:59.247Z,-0.10
2019-01-12T06:11:26.660Z,-0.10
2019-01-12T06:13:53.880Z,0.00
2019-01-12T06:16:21.139Z,-0.10
2019-01-12T06:18:48.659Z,0.00
2019-01-12T06:21:16.261Z,0.00
2019-01-12T06:23:43.555Z,0.00
2019-01-12T06:26:11.040Z,0.00
2019-01-12T06:28:38.357Z,0.00
2019-01-12T06:31:05.675Z,0.10
2019-01-12T06:33:33.089Z,0.10
2019-01-12T06:36:00.518Z,0.10
2019-01-12T06:38:28.035Z,0.10
2019-01-12T06:40:57.116Z,0.10
2019-01-12T06:43:24.419Z,0.10
2019-01-12T06:45:51.891Z,0.10
2019-01-12T06:48:19.197Z,0.20
2019-01-12T06:50:46.706Z,0.20
2019-01-12T06:53:14.079Z,0.10
2019-01-12T06:55:41.472Z,0.20
2019-01-12T06:58:08.921Z,0.10
2019-01-12T07:00:36.328Z,0.10
2019-01-12T07:03:03.832Z,0.10
2019-01-12T07:05:31.130Z,0.20
2019-01-12T07:07:58.603Z,0.20
2019-01-12T07:10:25.829Z,0.10
2019-01-12T07:12:55.340Z,0.20
2019-01-12T07:15:22.628Z,0.20
2019-01-12T07:17:49.984Z,0.30
2019-01-12T07:20:17.297Z,0.20
2019-01-12T07:22:46.209Z,0.30
2019-01-12T07:25:13.807Z,0.30
2019-01-12T07:27:40.956Z,0.30
2019-01-12T07:30:10.764Z,0.30
2019-01-12T07:32:38.224Z,0.30
2019-01-12T07:35:07.552Z,0.30
2019-01-12T07:37:34.887Z,0.30
2019-01-12T07:40:02.172Z,0.30
2019-01-12T07:42:29.536Z,0.30
2019-01-12T07:44:56.906Z,0.30
2019-01-12T07:47:24.307Z,0.30
2019-01-12T07:49:51.911Z,0.40
2019-01-12T07:52:19.372Z,0.40
2019-01-12T07:54:47.868Z,0.50
2019-01-12T07:57:16.311Z,0.60
2019-01-12T07:59:43.631Z,0.60
2019-01-12T08:02:13.046Z,0.70
2019-01-12T08:04:40.230Z,0.70
2019-01-12T08:07:07.583Z,0.80
2019-01-12T08:09:34.924Z,0.90
2019-01-12T08:12:02.384Z,0.90
2019-01-12T08:14:29.624Z,0.90
2019-01-12T08:16:57.083Z,0.90
2019-01-12T08:19:24.530Z,0.90
2019-01-12T08:21:53.930Z,0.90
2019-01-12T08:24:21.268Z,0.90
2019-01-12T08:26:48.668Z,1.00
2019-01-12T08:29:15.942Z,1.00
2019-01-12T08:31:43.329Z,1.00
2019-01-12T08:34:10.720Z,1.00
2019-01-12T08:36:38.181Z,1.00
2019-01-12T08:39:06.217Z,1.00
2019-01-12T08:41:33.556Z,1.00
2019-01-12T08:44:01.022Z,1.00
2019-01-12T08:46:29.354Z,1.10
2019-01-12T08:48:56.796Z,1.10
2019-01-12T08:51:24.251Z,1.10
2019-01-12T08:53:51.464Z,1.20
2019-01-12T08:56:18.994Z,1.20
2019-01-12T08:58:46.203Z,1.20
2019-01-12T09:01:13.589Z,1.20
2019-01-12T09:03:40.914Z,1.20
2019-01-12T09:06:08.336Z,1.20
2019-01-12T09:08:35.835Z,1.10
2019-01-12T09:11:03.256Z,1.20
2019-01-12T09:13:30.740Z,1.30
2019-01-12T09:15:57.960Z,1.30
2019-01-12T09:18:25.380Z,1.40
2019-01-12T09:20:54.407Z,1.30
2019-01-12T09:23:21.748Z,1.20
2019-01-12T09:25:49.154Z,1.30
2019-01-12T09:28:16.583Z,1.40
2019-01-12T09:30:48.499Z,1.50
2019-01-12T09:33:13.357Z,1.50
2019-01-12T09:35:40.824Z,1.60
2019-01-12T09:38:08.256Z,1.70
2019-01-12T09:40:36.664Z,1.60
2019-01-12T09:43:04.067Z,1.60
2019-01-12T09:45:31.483Z,1.80
2019-01-12T09:47:58.827Z,1.80
2019-01-12T09:50:26.260Z,1.80
2019-01-12T09:52:53.660Z,1.80
2019-01-12T09:55:21.200Z,1.80
2019-01-12T09:57:48.416Z,1.80
2019-01-12T10:00:16.935Z,1.70
2019-01-12T10:02:44.205Z,1.80
2019-01-12T10:05:13.214Z,1.70
2019-01-12T10:07:40.623Z,1.70
2019-01-12T10:10:09.472Z,1.80
2019-01-12T10:12:36.930Z,1.80
2019-01-12T10:15:04.839Z,1.90
2019-01-12T10:17:32.212Z,1.90
2019-01-12T10:19:59.661Z,1.90
2019-01-12T10:22:28.668Z,1.90
2019-01-12T10:24:56.162Z,1.90
2019-01-12T10:27:23.363Z,2.00
2019-01-12T10:29:50.712Z,2.10
2019-01-12T10:32:18.114Z,2.00
2019-01-12T10:34:45.570Z,2.00
2019-01-12T10:37:13.015Z,2.00
2019-01-12T10:39:40.353Z,2.00
2019-01-12T10:42:07.630Z,2.00
2019-01-12T10:44:34.958Z,2.00
2019-01-12T10:47:02.143Z,1.90
2019-01-12T10:49:29.300Z,1.90
2019-01-12T10:51:57.520Z,1.90
2019-01-12T10:54:24.831Z,1.90
2019-01-12T10:56:52.318Z,1.90
2019-01-12T10:59:19.631Z,2.00
2019-01-12T11:01:47.043Z,2.20
2019-01-12T11:04:14.479Z,2.20
2019-01-12T11:06:41.834Z,2.30
2019-01-12T11:09:09.311Z,2.30
2019-01-12T11:11:36.770Z,2.30
2019-01-12T11:14:04.203Z,2.30
2019-01-12T11:16:31.762Z,2.30
2019-01-12T11:18:59.015Z,2.20
2019-01-12T11:21:28.082Z,2.30
2019-01-12T11:23:55.426Z,2.30
2019-01-12T11:26:22.866Z,2.40
2019-01-12T11:28:50.175Z,2.40
2019-01-12T11:31:19.943Z,2.40
2019-01-12T11:33:46.828Z,2.40
2019-01-12T11:36:16.120Z,2.50
2019-01-12T11:38:43.396Z,2.70
2019-01-12T11:41:10.845Z,2.80
2019-01-12T11:43:38.278Z,2.80
2019-01-12T11:46:05.715Z,2.70
2019-01-12T11:48:33.026Z,2.60
2019-01-12T11:51:07.938Z,2.50
2019-01-12T11:53:36.163Z,2.60
2019-01-12T11:56:03.571Z,2.40
2019-01-12T11:58:31.889Z,2.60
2019-01-12T12:00:59.592Z,2.60
2019-01-12T12:03:27.072Z,2.70
2019-01-12T12:05:54.373Z,2.70
2019-01-12T12:08:21.659Z,2.60
2019-01-12T12:10:49.980Z,2.60
2019-01-12T12:13:17.490Z,2.60
2019-01-12T12:15:44.849Z,2.50
2019-01-12T12:18:12.272Z,2.50
2019-01-12T12:20:39.576Z,2.60
2019-01-12T12:23:06.876Z,2.70
2019-01-12T12:25:34.073Z,2.60
2019-01-12T12:28:01.584Z,2.60
2019-01-12T12:30:29.419Z,2.70
2019-01-12T12:32:56.667Z,2.60
2019-01-12T12:35:23.995Z,2.70
2019-01-12T12:37:52.640Z,2.70
2019-01-12T12:40:21.828Z,2.60
2019-01-12T12:42:49.187Z,2.60
2019-01-12T12:45:17.946Z,2.50
2019-01-12T12:47:45.526Z,2.50
2019-01-12T12:50:13.604Z,2.60
2019-01-12T12:52:41.242Z,2.60
2019-01-12T12:55:09.129Z,2.60
2019-01-12T12:57:36.653Z,2.60
2019-01-12T13:00:05.375Z,2.50
2019-01-12T13:02:32.796Z,2.50
2019-01-12T13:05:00.088Z,2.60
2019-01-12T13:07:27.581Z,2.60
2019-01-12T13:09:54.845Z,2.60
2019-01-12T13:12:24.281Z,2.50
2019-01-12T13:14:53.135Z,2.50
2019-01-12T13:17:20.461Z,2.60
2019-01-12T13:19:47.930Z,2.50
2019-01-12T13:22:15.244Z,2.50
2019-01-12T13:24:42.648Z,2.50
2019-01-12T13:27:18.463Z,2.50
2019-01-12T13:29:56.879Z,2.60
2019-01-12T13:32:35.902Z,2.60
2019-01-12T13:35:13.239Z,2.70
2019-01-12T13:37:41.058Z,2.70
2019-01-12T13:40:09.271Z,2.70
2019-01-12T13:42:37.025Z,2.60
2019-01-12T13:45:05.063Z,2.60
2019-01-12T13:47:33.821Z,2.60
2019-01-12T13:50:01.300Z,2.60
2019-01-12T13:52:28.612Z,2.50
2019-01-12T13:54:55.963Z,2.60
2019-01-12T13:57:23.228Z,2.50
2019-01-12T13:59:50.660Z,2.40
2019-01-12T14:02:18.022Z,2.40
2019-01-12T14:04:45.548Z,2.40
2019-01-12T14:07:13.057Z,2.30
2019-01-12T14:09:40.254Z,2.30
2019-01-12T14:12:07.749Z,2.30
2019-01-12T14:14:35.303Z,2.30
2019-01-12T14:17:02.653Z,2.30
2019-01-12T14:19:29.959Z,2.20
2019-01-12T14:21:57.311Z,2.20
2019-01-12T14:24:26.705Z,2.20
2019-01-12T14:26:54.079Z,2.10
2019-01-12T14:29:21.570Z,2.10
2019-01-12T14:31:48.932Z,2.00
2019-01-12T14:34:16.276Z,2.00
2019-01-12T14:36:45.237Z,2.00
2019-01-12T14:39:12.728Z,2.00
2019-01-12T14:41:40.140Z,2.00
2019-01-12T14:44:07.563Z,2.00
2019-01-12T14:46:34.951Z,2.00
2019-01-12T14:49:02.458Z,1.90
2019-01-12T14:51:29.766Z,2.00
2019-01-12T14:53:57.164Z,1.90
2019-01-12T14:56:24.552Z,1.90
2019-01-12T14:58:51.848Z,1.90
2019-01-12T15:01:21.015Z,1.90
2019-01-12T15:03:50.015Z,1.80
2019-01-12T15:06:18.455Z,1.80
2019-01-12T15:08:46.718Z,1.80
2019-01-12T15:11:14.240Z,1.80
2019-01-12T15:13:44.540Z,1.80
2019-01-12T15:16:14.323Z,1.80
2019-01-12T15:18:41.642Z,1.80
2019-01-12T15:21:08.886Z,1.80
2019-01-12T15:23:36.268Z,1.80
2019-01-12T15:26:04.874Z,1.80
2019-01-12T15:28:32.263Z,1.70
2019-01-12T15:30:59.767Z,1.70
2019-01-12T15:33:28.256Z,1.70
2019-01-12T15:35:55.708Z,1.70
2019-01-12T15:38:22.955Z,1.70
2019-01-12T15:40:50.303Z,1.70
2019-01-12T15:43:17.667Z,1.80
2019-01-12T15:45:45.074Z,1.80
2019-01-12T15:48:12.598Z,1.80
2019-01-12T15:50:39.984Z,1.80
2019-01-12T15:53:07.307Z,1.80
2019-01-12T15:55:34.795Z,1.80
2019-01-12T15:58:03.293Z,1.80
2019-01-12T16:00:30.640Z,1.80
2019-01-12T16:02:58.130Z,1.80
2019-01-12T16:05:25.759Z,1.80
2019-01-12T16:07:53.276Z,1.90
2019-01-12T16:10:20.865Z,1.90
2019-01-12T16:12:48.276Z,1.90
2019-01-12T16:15:21.249Z,1.90
2019-01-12T16:17:48.858Z,2.00
2019-01-12T16:20:17.607Z,1.90
2019-01-12T16:22:46.717Z,1.90
2019-01-12T16:25:13.977Z,1.90
2019-01-12T16:27:41.350Z,1.90
2019-01-12T16:30:10.555Z,2.00
2019-01-12T16:32:37.951Z,2.00
2019-01-12T16:35:07.325Z,2.00
2019-01-12T16:37:34.503Z,2.00
2019-01-12T16:40:03.500Z,2.00
2019-01-12T16:42:30.812Z,2.00
2019-01-12T16:44:58.319Z,2.10
2019-01-12T16:47:25.751Z,2.00
2019-01-12T16:49:53.013Z,2.00
2019-01-12T16:52:22.338Z,2.00
2019-01-12T16:54:50.032Z,2.00
2019-01-12T16:57:17.531Z,2.00
2019-01-12T16:59:44.926Z,2.10
2019-01-12T17:02:12.338Z,2.10
2019-01-12T17:04:39.763Z,2.10
2019-01-12T17:07:07.164Z,2.10
2019-01-12T17:09:34.585Z,2.10
2019-01-12T17:12:01.858Z,2.10
2019-01-12T17:14:29.239Z,2.10
2019-01-12T17:16:56.778Z,2.10
2019-01-12T17:19:25.786Z,2.10
2019-01-12T17:21:53.232Z,2.20
2019-01-12T17:24:20.670Z,2.20
2019-01-12T17:26:49.651Z,2.20
2019-01-12T17:29:17.978Z,2.20
2019-01-12T17:31:45.819Z,2.30
2019-01-12T17:34:13.276Z,2.30
2019-01-12T17:36:40.732Z,2.20
2019-01-12T17:39:09.402Z,2.30
2019-01-12T17:41:36.827Z,2.20
2019-01-12T17:44:04.419Z,2.30
2019-01-12T17:46:31.778Z,2.20
2019-01-12T17:48:59.235Z,2.20
2019-01-12T17:51:26.421Z,2.20
2019-01-12T17:53:53.961Z,2.20
2019-01-12T17:56:21.446Z,2.20
2019-01-12T17:58:50.898Z,2.10
2019-01-12T18:01:18.227Z,2.20
2019-01-12T18:03:45.610Z,2.10
2019-01-12T18:06:13.785Z,2.10
2019-01-12T18:08:41.452Z,2.00
2019-01-12T18:11:08.776Z,1.90
2019-01-12T18:13:36.120Z,1.80
2019-01-12T18:16:03.539Z,1.80
2019-01-12T18:18:30.760Z,1.80
2019-01-12T18:20:58.247Z,1.80
2019-01-12T18:23:26.820Z,1.80
2019-01-12T18:25:54.192Z,1.80
2019-01-12T18:28:21.619Z,1.90
2019-01-12T18:30:48.993Z,1.90
2019-01-12T18:33:17.387Z,1.90
2019-01-12T18:35:44.806Z,1.80
2019-01-12T18:38:14.408Z,1.80
2019-01-12T18:40:41.894Z,1.70
2019-01-12T18:43:09.359Z,1.70
2019-01-12T18:45:36.901Z,1.60
2019-01-12T18:48:04.351Z,1.70
2019-01-12T18:50:31.806Z,1.60
2019-01-12T18:52:59.110Z,1.60
2019-01-12T18:55:26.602Z,1.50
2019-01-12T18:57:54.064Z,1.40
2019-01-12T19:00:22.323Z,1.40
2019-01-12T19:02:50.912Z,1.40
2019-01-12T19:05:18.272Z,1.40
2019-01-12T19:07:45.735Z,1.40
2019-01-12T19:10:13.390Z,1.40
2019-01-12T19:12:40.944Z,1.30
2019-01-12T19:15:11.378Z,1.30
2019-01-12T19:17:39.752Z,1.30
2019-01-12T19:20:07.680Z,1.20
2019-01-12T19:22:35.304Z,1.10
2019-01-12T19:25:03.729Z,1.00
2019-01-12T19:27:40.390Z,1.00
2019-01-12T19:30:09.899Z,0.90
2019-01-12T19:32:37.206Z,0.90
2019-01-12T19:35:04.867Z,1.00
2019-01-12T19:37:33.623Z,1.00
2019-01-12T19:40:03.591Z,1.00
2019-01-12T19:42:31.851Z,0.90
2019-01-12T19:44:59.496Z,0.90
2019-01-12T19:47:26.799Z,0.90
2019-01-12T19:49:56.833Z,0.90
2019-01-12T19:52:24.617Z,0.90
2019-01-12T19:54:51.942Z,0.90
2019-01-12T19:57:19.155Z,1.00
2019-01-12T19:59:49.167Z,0.90
2019-01-12T20:02:16.731Z,0.90
2019-01-12T20:04:44.223Z,0.90
2019-01-12T20:07:13.460Z,0.90
2019-01-12T20:09:42.728Z,0.80
2019-01-12T20:12:12.864Z,0.80
2019-01-12T20:14:43.204Z,0.80
2019-01-12T20:17:11.651Z,0.80
2019-01-12T20:19:39.029Z,0.80
2019-01-12T20:22:08.443Z,0.80
2019-01-12T20:24:36.994Z,0.80
2019-01-12T20:27:04.338Z,0.80
2019-01-12T20:29:31.757Z,0.80
2019-01-12T20:32:09.595Z,0.80
2019-01-12T20:34:41.751Z,0.80
2019-01-12T20:37:33.587Z,0.80
2019-01-12T20:40:11.227Z,0.80
2019-01-12T20:42:48.971Z,0.70
2019-01-12T20:45:35.604Z,0.70
2019-01-12T20:48:21.100Z,0.70
2019-01-12T20:51:24.450Z,0.70
2019-01-12T20:54:11.311Z,0.70
2019-01-12T20:56:46.191Z,0.80
2019-01-12T20:59:35.214Z,0.70
2019-01-12T21:02:21.728Z,0.70
2019-01-12T21:05:02.806Z,0.80
2019-01-12T21:07:35.042Z,0.80
2019-01-12T21:10:23.933Z,0.80
2019-01-12T21:13:10.558Z,0.90
2019-01-12T21:15:40.856Z,1.00
2019-01-12T21:18:08.219Z,1.00
2019-01-12T21:20:37.723Z,1.00
2019-01-12T21:23:05.157Z,1.00
2019-01-12T21:25:32.536Z,0.90
2019-01-12T21:27:59.921Z,1.00
2019-01-12T21:30:27.143Z,1.00
2019-01-12T21:32:54.329Z,0.90
2019-01-12T21:35:21.758Z,1.00
2019-01-12T21:37:49.184Z,1.00
2019-01-12T21:40:16.368Z,1.00
2019-01-12T21:42:43.894Z,1.00
2019-01-12T21:45:12.791Z,0.90
2019-01-12T21:47:40.198Z,0.90
2019-01-12T21:50:08.996Z,0.90
2019-01-12T21:52:36.699Z,0.90
2019-01-12T21:55:05.616Z,0.80
2019-01-12T21:57:34.973Z,0.70
2019-01-12T22:00:02.327Z,0.80
2019-01-12T22:02:29.810Z,0.90
2019-01-12T22:04:57.131Z,0.80
2019-01-12T22:07:26.432Z,0.80
2019-01-12T22:09:53.692Z,0.70
2019-01-12T22:12:21.015Z,0.70
2019-01-12T22:14:48.406Z,0.70
2019-01-12T22:17:15.835Z,0.70
2019-01-12T22:19:44.144Z,0.70
2019-01-12T22:22:11.461Z,0.80
2019-01-12T22:24:38.947Z,0.70
2019-01-12T22:27:06.274Z,0.80
2019-01-12T22:29:33.762Z,0.70
2019-01-12T22:32:00.932Z,0.70
2019-01-12T22:34:28.396Z,0.80
2019-01-12T22:36:55.671Z,0.70
2019-01-12T22:39:23.171Z,0.70
2019-01-12T22:41:50.688Z,0.70
2019-01-12T22:44:18.040Z,0.80
2019-01-12T22:46:45.523Z,0.80
2019-01-12T22:49:12.803Z,0.80
2019-01-12T22:51:40.105Z,0.80
2019-01-12T22:54:07.607Z,0.80
2019-01-12T22:56:35.019Z,0.90
2019-01-12T22:59:02.428Z,0.90
2019-01-12T23:01:49.444Z,0.90
2019-01-12T23:04:20.631Z,0.90
2019-01-12T23:06:47.819Z,0.90
2019-01-12T23:09:15.283Z,0.90
2019-01-12T23:11:42.860Z,0.90
2019-01-12T23:14:10.300Z,0.90
2019-01-12T23:16:37.669Z,0.90
2019-01-12T23:19:05.210Z,0.90
2019-01-12T23:21:32.626Z,1.00
2019-01-12T23:24:00.122Z,1.00
2019-01-12T23:26:29.154Z,1.00
2019-01-12T23:28:56.675Z,1.00
2019-01-12T23:31:24.019Z,1.00
2019-01-12T23:33:51.399Z,1.00
2019-01-12T23:36:18.814Z,1.00
2019-01-12T23:38:46.210Z,1.00
2019-01-12T23:41:14.620Z,1.10
2019-01-12T23:43:43.650Z,1.00
2019-01-12T23:46:10.979Z,1.00
2019-01-12T23:48:38.502Z,0.90
2019-01-12T23:51:05.900Z,0.90
2019-01-12T23:53:33.503Z,0.90
2019-01-12T23:56:01.107Z,0.90
2019-01-12T23:58:31.551Z,1.00
